createdAt,value
2023-09-29T00:02:48.490Z,17.56
2023-09-29T00:07:52.812Z,17.60
2023-09-29T00:12:55.754Z,17.63
2023-09-29T00:18:00.370Z,17.72
2023-09-29T00:23:04.181Z,17.64
2023-09-29T00:28:07.636Z,17.70
2023-09-29T00:33:12.318Z,17.65
2023-09-29T00:38:15.274Z,17.59
2023-09-29T00:43:18.479Z,17.41
2023-09-29T00:48:24.098Z,17.23
2023-09-29T00:53:29.875Z,17.41
2023-09-29T00:58:33.027Z,17.33
2023-09-29T01:03:37.385Z,17.38
2023-09-29T01:08:41.078Z,17.33
2023-09-29T01:13:43.991Z,17.30
2023-09-29T01:18:48.444Z,17.33
2023-09-29T01:23:52.868Z,17.27
2023-09-29T01:28:55.881Z,17.00
2023-09-29T01:33:59.252Z,16.94
2023-09-29T01:39:04.784Z,16.95
2023-09-29T01:44:08.111Z,16.84
2023-09-29T01:49:11.140Z,16.71
2023-09-29T01:54:15.547Z,16.56
2023-09-29T01:59:18.676Z,16.56
2023-09-29T02:04:21.745Z,16.45
2023-09-29T02:09:27.555Z,16.50
2023-09-29T02:14:31.202Z,16.44
2023-09-29T02:19:37.359Z,16.48
2023-09-29T02:24:41.629Z,16.52
2023-09-29T02:29:44.537Z,16.42
2023-09-29T02:34:47.514Z,16.45
2023-09-29T02:39:51.935Z,16.23
2023-09-29T02:44:54.906Z,16.27
2023-09-29T02:49:59.922Z,16.16
2023-09-29T02:55:05.788Z,16.07
2023-09-29T03:00:12.754Z,16.10
2023-09-29T03:05:17.247Z,16.18
2023-09-29T03:10:22.152Z,16.15
2023-09-29T03:15:25.692Z,15.97
2023-09-29T03:20:29.263Z,15.93
2023-09-29T03:25:34.029Z,15.73
2023-09-29T03:30:36.949Z,15.70
2023-09-29T03:35:39.996Z,15.68
2023-09-29T03:40:46.102Z,15.65
2023-09-29T03:45:50.635Z,15.59
2023-09-29T03:50:55.210Z,15.46
2023-09-29T03:55:59.496Z,15.47
2023-09-29T04:01:03.607Z,15.33
2023-09-29T04:06:06.727Z,15.39
2023-09-29T04:11:11.901Z,15.47
2023-09-29T04:16:15.417Z,15.42
2023-09-29T04:21:20.422Z,15.36
2023-09-29T04:26:24.883Z,15.29
2023-09-29T04:31:28.276Z,15.27
2023-09-29T04:36:31.705Z,15.05
2023-09-29T04:41:38.040Z,14.99
2023-09-29T04:46:43.260Z,14.91
2023-09-29T04:51:46.484Z,14.96
2023-09-29T04:56:50.814Z,15.03
2023-09-29T05:01:53.829Z,14.95
2023-09-29T05:06:56.754Z,15.10
2023-09-29T05:12:02.934Z,15.03
2023-09-29T05:17:05.882Z,15.06
2023-09-29T05:22:08.965Z,15.22
2023-09-29T05:27:13.380Z,15.22
2023-09-29T05:32:16.358Z,15.27
2023-09-29T05:37:19.718Z,15.37
2023-09-29T05:42:33.583Z,15.71
2023-09-29T05:47:44.169Z,15.82
2023-09-29T05:52:59.648Z,16.11
2023-09-29T05:58:08.814Z,16.41
2023-09-29T06:03:11.745Z,16.76
2023-09-29T06:08:14.647Z,17.03
2023-09-29T06:13:18.931Z,17.36
2023-09-29T06:18:21.846Z,17.80
2023-09-29T06:23:24.760Z,18.09
2023-09-29T06:28:29.227Z,18.65
2023-09-29T06:33:32.606Z,19.29
2023-09-29T06:38:35.739Z,20.39
2023-09-29T06:43:41.192Z,21.35
2023-09-29T06:48:45.287Z,21.65
2023-09-29T06:53:49.614Z,21.53
2023-09-29T06:58:56.021Z,22.09
2023-09-29T07:04:01.747Z,22.57
2023-09-29T07:09:08.099Z,23.30
2023-09-29T07:14:13.104Z,24.87
2023-09-29T07:19:16.099Z,26.78
2023-09-29T07:24:19.128Z,28.23
2023-09-29T07:29:23.562Z,30.81
2023-09-29T07:34:28.616Z,31.17
2023-09-29T07:39:31.589Z,31.76
2023-09-29T07:44:35.897Z,32.50
2023-09-29T07:49:41.669Z,32.26
2023-09-29T07:54:44.654Z,33.71
2023-09-29T07:59:48.972Z,33.91
2023-09-29T08:04:51.897Z,34.22
2023-09-29T08:09:54.873Z,33.54
2023-09-29T08:14:59.203Z,34.43
2023-09-29T08:20:02.176Z,34.64
2023-09-29T08:25:09.164Z,34.96
2023-09-29T08:30:14.318Z,33.91
2023-09-29T08:35:17.320Z,34.47
2023-09-29T08:40:20.406Z,32.44
2023-09-29T08:45:31.077Z,34.45
2023-09-29T08:50:35.468Z,34.65
2023-09-29T08:55:39.651Z,34.59
2023-09-29T09:00:48.515Z,35.54
2023-09-29T09:05:54.907Z,34.14
2023-09-29T09:11:01.746Z,34.07
2023-09-29T09:16:08.691Z,32.58
2023-09-29T09:21:13.611Z,34.40
2023-09-29T09:26:17.749Z,34.45
2023-09-29T09:31:22.308Z,34.14
2023-09-29T09:36:25.437Z,34.51
2023-09-29T09:41:28.381Z,35.05
2023-09-29T09:46:39.401Z,34.63
2023-09-29T09:51:48.773Z,34.91
2023-09-29T09:57:02.687Z,34.32
2023-09-29T10:02:08.908Z,35.62
2023-09-29T10:07:13.103Z,35.86
2023-09-29T10:12:25.988Z,35.64
2023-09-29T10:17:41.623Z,35.71
2023-09-29T10:22:44.793Z,34.56
2023-09-29T10:27:50.680Z,36.63
2023-09-29T10:33:06.721Z,35.55
2023-09-29T10:38:13.738Z,36.13
2023-09-29T10:43:19.887Z,36.12
2023-09-29T10:48:26.108Z,36.58
2023-09-29T10:53:38.401Z,36.58
2023-09-29T10:58:42.104Z,36.51
2023-09-29T11:03:47.253Z,37.10
2023-09-29T11:08:55.132Z,36.33
2023-09-29T11:13:59.421Z,35.40
2023-09-29T11:19:12.404Z,35.40
2023-09-29T11:24:20.282Z,35.79
2023-09-29T11:29:24.182Z,35.36
2023-09-29T11:34:30.975Z,35.58
2023-09-29T11:39:35.201Z,35.63
2023-09-29T11:44:38.236Z,35.57
2023-09-29T11:49:42.722Z,36.62
2023-09-29T11:54:51.463Z,35.88
2023-09-29T11:59:55.303Z,36.67
2023-09-29T12:04:59.813Z,36.85
2023-09-29T12:10:02.816Z,36.60
2023-09-29T12:15:06.726Z,37.25
2023-09-29T12:20:14.960Z,38.43
2023-09-29T12:25:18.328Z,38.55
2023-09-29T12:30:23.098Z,38.46
2023-09-29T12:35:27.937Z,39.99
2023-09-29T12:40:30.850Z,40.08
2023-09-29T12:45:34.101Z,41.19
2023-09-29T12:50:40.001Z,41.07
2023-09-29T12:55:43.149Z,42.32
2023-09-29T13:00:46.067Z,43.19
2023-09-29T13:05:50.382Z,42.12
2023-09-29T13:10:53.378Z,38.41
2023-09-29T13:15:56.871Z,35.99
2023-09-29T13:21:01.226Z,35.39
2023-09-29T13:26:05.178Z,35.81
2023-09-29T13:31:08.070Z,34.41
2023-09-29T13:36:12.558Z,33.00
2023-09-29T13:41:15.519Z,32.10
2023-09-29T13:46:18.552Z,32.40
2023-09-29T13:51:23.022Z,30.97
2023-09-29T13:56:26.874Z,31.00
2023-09-29T14:01:29.839Z,30.19
2023-09-29T14:06:34.441Z,30.79
2023-09-29T14:11:37.499Z,30.20
2023-09-29T14:16:40.395Z,30.21
2023-09-29T14:21:46.686Z,30.20
2023-09-29T14:26:50.098Z,29.89
2023-09-29T14:31:53.459Z,29.54
2023-09-29T14:36:57.813Z,29.54
2023-09-29T14:42:00.796Z,29.43
2023-09-29T14:47:03.697Z,28.84
2023-09-29T14:52:07.987Z,28.57
2023-09-29T14:57:11.346Z,28.61
2023-09-29T15:02:14.255Z,28.26
2023-09-29T15:07:18.693Z,28.27
2023-09-29T15:12:23.798Z,28.25
2023-09-29T15:17:29.293Z,28.31
2023-09-29T15:22:33.665Z,28.13
2023-09-29T15:27:36.586Z,28.12
2023-09-29T15:32:39.615Z,27.80
2023-09-29T15:37:45.073Z,27.66
2023-09-29T15:42:48.111Z,27.51
2023-09-29T15:47:51.072Z,27.60
2023-09-29T15:52:55.413Z,27.46
2023-09-29T15:57:58.394Z,27.49
2023-09-29T16:03:01.383Z,27.46
2023-09-29T16:08:06.354Z,27.28
2023-09-29T16:13:13.783Z,27.20
2023-09-29T16:18:16.792Z,26.86
2023-09-29T16:23:22.056Z,26.62
2023-09-29T16:28:24.980Z,26.22
2023-09-29T16:33:27.947Z,26.00
2023-09-29T16:38:32.290Z,25.78
2023-09-29T16:43:35.438Z,25.68
2023-09-29T16:48:38.431Z,25.70
2023-09-29T16:53:43.664Z,25.44
2023-09-29T16:58:46.572Z,25.34
2023-09-29T17:03:49.754Z,25.23
2023-09-29T17:08:56.460Z,25.02
2023-09-29T17:13:59.639Z,24.98
2023-09-29T17:19:02.514Z,24.74
2023-09-29T17:24:08.523Z,24.45
2023-09-29T17:29:12.760Z,24.23
2023-09-29T17:34:17.728Z,24.05
2023-09-29T17:39:24.387Z,23.83
2023-09-29T17:44:29.999Z,23.78
2023-09-29T17:49:36.091Z,23.44
2023-09-29T17:54:43.242Z,23.46
2023-09-29T17:59:48.823Z,23.34
2023-09-29T18:04:54.485Z,23.04
2023-09-29T18:10:02.727Z,22.81
2023-09-29T18:15:09.281Z,22.72
2023-09-29T18:20:17.146Z,22.71
2023-09-29T18:25:24.383Z,22.52
2023-09-29T18:30:30.381Z,22.44
2023-09-29T18:35:37.783Z,22.24
2023-09-29T18:40:47.624Z,22.07
2023-09-29T18:46:01.428Z,22.00
2023-09-29T18:51:08.188Z,21.93
2023-09-29T18:56:19.900Z,21.70
2023-09-29T19:01:28.509Z,21.58
2023-09-29T19:06:34.281Z,21.44
2023-09-29T19:11:43.452Z,21.49
2023-09-29T19:16:49.173Z,21.47
2023-09-29T19:21:54.943Z,21.44
2023-09-29T19:27:02.885Z,21.27
2023-09-29T19:32:10.523Z,21.28
2023-09-29T19:37:16.170Z,21.11
2023-09-29T19:42:25.289Z,21.07
2023-09-29T19:47:30.952Z,20.93
2023-09-29T19:52:38.816Z,20.83
2023-09-29T19:57:48.888Z,20.63
2023-09-29T20:02:54.775Z,20.81
2023-09-29T20:08:00.530Z,20.93
2023-09-29T20:13:08.522Z,20.79
2023-09-29T20:18:14.322Z,20.64
2023-09-29T20:23:22.822Z,20.61
2023-09-29T20:28:30.452Z,20.48
2023-09-29T20:33:36.476Z,20.29
2023-09-29T20:38:41.523Z,20.29
2023-09-29T20:43:47.423Z,20.20
2023-09-29T20:48:51.010Z,20.19
2023-09-29T20:53:54.085Z,20.06
2023-09-29T20:58:58.835Z,20.05
2023-09-29T21:04:07.503Z,20.03
2023-09-29T21:09:10.941Z,20.09
2023-09-29T21:14:17.041Z,20.02
2023-09-29T21:19:20.188Z,19.93
2023-09-29T21:24:23.124Z,19.80
2023-09-29T21:29:27.937Z,19.82
2023-09-29T21:34:30.982Z,19.51
2023-09-29T21:39:33.911Z,19.52
2023-09-29T21:44:38.133Z,19.50
2023-09-29T21:49:41.076Z,19.39
2023-09-29T21:54:43.951Z,19.33
2023-09-29T21:59:48.272Z,19.19
2023-09-29T22:04:51.161Z,19.28
2023-09-29T22:09:54.535Z,19.32
2023-09-29T22:15:00.932Z,19.07
2023-09-29T22:20:04.597Z,18.99
2023-09-29T22:25:08.401Z,18.81
2023-09-29T22:30:13.679Z,18.68
2023-09-29T22:35:16.827Z,18.55
2023-09-29T22:40:19.741Z,18.63
2023-09-29T22:45:24.361Z,18.46
2023-09-29T22:50:27.790Z,18.48
2023-09-29T22:55:31.355Z,18.50
2023-09-29T23:00:35.689Z,18.63
2023-09-29T23:05:38.660Z,18.63
2023-09-29T23:10:43.626Z,18.51
2023-09-29T23:15:48.059Z,18.56
2023-09-29T23:20:52.125Z,18.36
2023-09-29T23:25:55.410Z,18.40
2023-09-29T23:31:00.584Z,18.37
2023-09-29T23:36:05.627Z,18.29
2023-09-29T23:41:09.650Z,18.25
2023-09-29T23:46:14.071Z,18.27
2023-09-29T23:51:17.063Z,18.31
2023-09-29T23:56:20.131Z,18.23
